createdAt,value
2022-09-22T00:01:09.961Z,7.40
2022-09-22T00:03:44.821Z,6.53
2022-09-22T00:06:26.330Z,6.40
2022-09-22T00:08:54.960Z,5.57
2022-09-22T00:11:23.860Z,6.20
2022-09-22T00:14:08.120Z,6.13
2022-09-22T00:16:42.777Z,5.90
2022-09-22T00:19:14.677Z,5.97
2022-09-22T00:21:41.145Z,6.23
2022-09-22T00:24:08.263Z,6.03
2022-09-22T00:26:35.868Z,5.77
2022-09-22T00:29:02.796Z,5.97
2022-09-22T00:31:30.013Z,5.60
2022-09-22T00:33:56.750Z,6.33
2022-09-22T00:36:26.366Z,7.33
2022-09-22T00:38:54.114Z,6.50
2022-09-22T00:41:25.182Z,5.90
2022-09-22T00:44:27.076Z,5.20
2022-09-22T00:46:57.215Z,5.40
2022-09-22T00:49:31.758Z,5.77
2022-09-22T00:51:58.234Z,5.27
2022-09-22T00:54:24.787Z,5.60
2022-09-22T00:56:54.255Z,5.93
2022-09-22T00:59:22.568Z,6.30
2022-09-22T01:01:49.186Z,7.03
2022-09-22T01:04:17.192Z,6.37
2022-09-22T01:06:44.280Z,5.17
2022-09-22T01:09:11.051Z,5.20
2022-09-22T01:11:38.858Z,5.50
2022-09-22T01:14:30.238Z,5.43
2022-09-22T01:16:59.665Z,5.07
2022-09-22T01:19:51.461Z,5.40
2022-09-22T01:22:24.097Z,5.10
2022-09-22T01:24:56.736Z,5.30
2022-09-22T01:27:46.760Z,5.30
2022-09-22T01:30:30.967Z,5.67
2022-09-22T01:33:01.533Z,5.50
2022-09-22T01:35:32.278Z,5.57
2022-09-22T01:37:58.705Z,5.37
2022-09-22T01:40:43.269Z,5.43
2022-09-22T01:43:18.905Z,5.10
2022-09-22T01:45:48.225Z,5.03
2022-09-22T01:48:20.385Z,5.30
2022-09-22T01:51:00.262Z,4.97
2022-09-22T01:53:31.230Z,4.53
2022-09-22T01:56:02.513Z,4.37
2022-09-22T01:58:32.579Z,4.13
2022-09-22T02:01:10.912Z,4.33
2022-09-22T02:04:11.781Z,4.17
2022-09-22T02:06:43.427Z,3.37
2022-09-22T02:09:11.995Z,3.53
2022-09-22T02:11:39.817Z,3.87
2022-09-22T02:14:07.022Z,3.70
2022-09-22T02:16:33.816Z,3.40
2022-09-22T02:19:18.413Z,3.53
2022-09-22T02:21:46.210Z,3.40
2022-09-22T02:24:34.056Z,3.13
2022-09-22T02:27:07.511Z,3.03
2022-09-22T02:29:37.884Z,3.43
2022-09-22T02:32:06.668Z,3.07
2022-09-22T02:34:33.497Z,3.30
2022-09-22T02:37:21.413Z,3.00
2022-09-22T02:39:57.983Z,3.40
2022-09-22T02:42:44.405Z,3.00
2022-09-22T02:45:31.328Z,3.10
2022-09-22T02:48:22.656Z,3.60
2022-09-22T02:50:49.100Z,3.50
2022-09-22T02:53:17.541Z,3.70
2022-09-22T02:55:44.876Z,3.67
2022-09-22T02:58:13.032Z,3.00
2022-09-22T03:00:39.568Z,3.10
2022-09-22T03:03:06.055Z,2.67
2022-09-22T03:05:32.514Z,2.67
2022-09-22T03:07:59.129Z,2.80
2022-09-22T03:10:25.669Z,2.73
2022-09-22T03:13:14.925Z,2.60
2022-09-22T03:15:38.699Z,2.50
2022-09-22T03:18:05.236Z,2.83
2022-09-22T03:20:31.708Z,2.60
2022-09-22T03:22:58.172Z,2.30
2022-09-22T03:25:24.841Z,2.40
2022-09-22T03:27:51.290Z,2.90
2022-09-22T03:30:17.916Z,2.57
2022-09-22T03:32:44.389Z,1.93
2022-09-22T03:35:10.928Z,2.30
2022-09-22T03:37:37.411Z,2.17
2022-09-22T03:40:04.908Z,2.30
2022-09-22T03:42:32.937Z,2.33
2022-09-22T03:44:59.851Z,2.30
2022-09-22T03:47:26.305Z,2.40
2022-09-22T03:49:52.774Z,2.20
2022-09-22T03:52:19.372Z,2.50
2022-09-22T03:54:45.859Z,2.00
2022-09-22T03:57:12.446Z,2.30
2022-09-22T03:59:38.932Z,2.27
2022-09-22T04:02:05.594Z,2.10
2022-09-22T04:04:32.634Z,2.40
2022-09-22T04:07:03.404Z,2.40
2022-09-22T04:09:32.800Z,2.30
2022-09-22T04:11:59.241Z,2.30
2022-09-22T04:14:25.732Z,2.10
2022-09-22T04:16:53.027Z,2.20
2022-09-22T04:19:19.795Z,2.30
2022-09-22T04:21:46.306Z,2.30
2022-09-22T04:24:12.760Z,2.30
2022-09-22T04:26:47.769Z,2.10
2022-09-22T04:29:25.953Z,2.23
2022-09-22T04:31:52.402Z,2.20
2022-09-22T04:34:18.935Z,2.20
2022-09-22T04:36:45.894Z,2.30
2022-09-22T04:39:12.413Z,2.17
2022-09-22T04:41:38.937Z,2.50
2022-09-22T04:44:05.412Z,2.17
2022-09-22T04:46:31.912Z,2.17
2022-09-22T04:48:58.590Z,2.37
2022-09-22T04:51:25.023Z,2.20
2022-09-22T04:53:51.571Z,2.53
2022-09-22T04:56:18.093Z,2.30
2022-09-22T04:58:44.673Z,2.10
2022-09-22T05:01:11.337Z,1.80
2022-09-22T05:03:39.078Z,2.10
2022-09-22T05:06:06.446Z,1.80
2022-09-22T05:08:32.964Z,1.80
2022-09-22T05:10:59.863Z,2.30
2022-09-22T05:13:26.313Z,1.70
2022-09-22T05:15:52.836Z,1.80
2022-09-22T05:18:19.293Z,1.97
2022-09-22T05:20:45.938Z,1.83
2022-09-22T05:23:12.377Z,2.13
2022-09-22T05:25:39.267Z,2.03
2022-09-22T05:28:05.733Z,2.10
2022-09-22T05:30:32.221Z,2.10
2022-09-22T05:32:58.690Z,1.80
2022-09-22T05:35:25.834Z,2.30
2022-09-22T05:37:53.053Z,2.17
2022-09-22T05:40:20.399Z,2.27
2022-09-22T05:42:48.817Z,2.53
2022-09-22T05:45:16.244Z,2.40
2022-09-22T05:47:44.020Z,2.27
2022-09-22T05:50:12.263Z,2.40
2022-09-22T05:52:39.027Z,2.80
2022-09-22T05:55:06.589Z,2.50
2022-09-22T05:57:33.145Z,2.70
2022-09-22T05:59:59.911Z,3.17
2022-09-22T06:02:26.936Z,2.97
2022-09-22T06:04:53.844Z,2.93
2022-09-22T06:07:20.661Z,3.27
2022-09-22T06:09:48.075Z,3.23
2022-09-22T06:12:14.754Z,3.83
2022-09-22T06:14:41.212Z,3.27
2022-09-22T06:17:11.869Z,3.57
2022-09-22T06:19:39.687Z,3.23
2022-09-22T06:22:06.759Z,3.70
2022-09-22T06:24:33.236Z,3.13
2022-09-22T06:26:59.720Z,3.10
2022-09-22T06:29:26.842Z,3.10
2022-09-22T06:31:53.428Z,2.93
2022-09-22T06:34:19.929Z,3.17
2022-09-22T06:36:46.391Z,3.20
2022-09-22T06:39:13.167Z,3.40
2022-09-22T06:41:39.708Z,3.33
2022-09-22T06:44:06.961Z,3.10
2022-09-22T06:46:34.384Z,4.37
2022-09-22T06:49:00.935Z,3.83
2022-09-22T06:51:30.002Z,4.30
2022-09-22T06:53:56.554Z,4.70
2022-09-22T06:56:27.993Z,5.20
2022-09-22T06:59:09.762Z,5.13
2022-09-22T07:01:37.554Z,5.10
2022-09-22T07:04:04.719Z,5.40
2022-09-22T07:06:31.594Z,5.03
2022-09-22T07:08:58.156Z,4.67
2022-09-22T07:11:24.744Z,5.67
2022-09-22T07:13:53.481Z,5.90
2022-09-22T07:16:22.183Z,5.43
2022-09-22T07:18:54.576Z,5.10
2022-09-22T07:21:24.782Z,5.67
2022-09-22T07:23:54.125Z,5.50
2022-09-22T07:26:26.492Z,5.73
2022-09-22T07:28:53.964Z,6.20
2022-09-22T07:31:26.310Z,6.00
2022-09-22T07:33:55.577Z,5.67
2022-09-22T07:36:23.864Z,5.40
2022-09-22T07:38:52.016Z,5.23
2022-09-22T07:41:21.199Z,4.47
2022-09-22T07:43:52.600Z,5.07
2022-09-22T07:46:19.913Z,4.50
2022-09-22T07:48:47.308Z,4.50
2022-09-22T07:51:24.961Z,5.17
2022-09-22T07:54:04.243Z,4.80
2022-09-22T07:56:31.053Z,4.37
2022-09-22T07:58:57.552Z,4.23
2022-09-22T08:01:26.288Z,4.73
2022-09-22T08:03:52.814Z,4.20
2022-09-22T08:06:23.524Z,4.37
2022-09-22T08:08:53.717Z,4.60
2022-09-22T08:11:22.160Z,4.77
2022-09-22T08:13:57.322Z,4.80
2022-09-22T08:16:28.375Z,4.80
2022-09-22T08:18:59.940Z,4.07
2022-09-22T08:21:27.746Z,4.23
2022-09-22T08:23:54.401Z,4.07
2022-09-22T08:26:21.168Z,3.90
2022-09-22T08:28:51.813Z,3.60
2022-09-22T08:31:21.241Z,3.57
2022-09-22T08:33:49.301Z,3.40
2022-09-22T08:36:16.785Z,4.00
2022-09-22T08:38:48.497Z,3.90
2022-09-22T08:41:39.393Z,2.93
2022-09-22T08:44:10.709Z,3.43
2022-09-22T08:46:45.952Z,3.23
2022-09-22T08:50:01.853Z,2.60
2022-09-22T08:52:41.167Z,2.73
2022-09-22T08:55:21.373Z,2.37
2022-09-22T08:58:14.025Z,2.77
2022-09-22T09:00:43.768Z,2.23
2022-09-22T09:03:49.349Z,1.80
2022-09-22T09:06:48.395Z,2.00
2022-09-22T09:09:14.851Z,1.80
2022-09-22T09:11:52.572Z,2.10
2022-09-22T09:14:54.416Z,1.97
2022-09-22T09:17:33.445Z,1.80
2022-09-22T09:20:12.061Z,1.90
2022-09-22T09:22:44.981Z,1.80
2022-09-22T09:25:24.971Z,1.80
2022-09-22T09:27:57.282Z,1.80
2022-09-22T09:30:23.894Z,2.00
2022-09-22T09:32:54.859Z,2.30
2022-09-22T09:35:29.470Z,2.10
2022-09-22T09:38:01.239Z,2.20
2022-09-22T09:40:28.470Z,1.50
2022-09-22T09:43:03.344Z,2.03
2022-09-22T09:45:38.376Z,1.67
2022-09-22T09:48:21.759Z,1.87
2022-09-22T09:50:48.261Z,1.83
2022-09-22T09:53:42.257Z,2.07
2022-09-22T09:56:25.320Z,2.03
2022-09-22T09:59:15.532Z,2.07
2022-09-22T10:01:43.503Z,1.73
2022-09-22T10:04:35.263Z,1.83
2022-09-22T10:07:19.365Z,1.73
2022-09-22T10:09:48.787Z,1.90
2022-09-22T10:12:32.842Z,2.00
2022-09-22T10:15:01.387Z,2.20
2022-09-22T10:17:41.974Z,2.27
2022-09-22T10:20:22.649Z,2.20
2022-09-22T10:22:49.502Z,2.13
2022-09-22T10:25:27.413Z,2.30
2022-09-22T10:28:01.107Z,1.63
2022-09-22T10:30:28.239Z,1.80
2022-09-22T10:33:22.863Z,2.00
2022-09-22T10:36:09.238Z,1.80
2022-09-22T10:41:17.977Z,2.37
2022-09-22T10:43:55.102Z,1.87
2022-09-22T10:46:29.177Z,2.07
2022-09-22T10:49:12.048Z,2.10
2022-09-22T10:52:03.278Z,1.70
2022-09-22T10:54:45.048Z,2.00
2022-09-22T10:57:52.681Z,1.70
2022-09-22T11:00:23.187Z,1.70
2022-09-22T11:03:08.209Z,2.13
2022-09-22T11:06:06.919Z,1.80
2022-09-22T11:09:07.172Z,1.63
2022-09-22T11:12:16.707Z,1.93
2022-09-22T11:15:05.164Z,2.03
2022-09-22T11:17:53.290Z,2.00
2022-09-22T11:20:36.163Z,1.50
2022-09-22T11:23:24.777Z,1.70
2022-09-22T11:26:12.959Z,1.73
2022-09-22T11:29:07.389Z,1.60
2022-09-22T11:31:49.947Z,1.73
2022-09-22T11:34:23.138Z,1.47
2022-09-22T11:37:40.101Z,1.53
2022-09-22T11:40:06.697Z,1.70
2022-09-22T11:42:43.941Z,1.90
2022-09-22T11:45:28.791Z,2.17
2022-09-22T11:48:13.485Z,1.80
2022-09-22T11:51:14.501Z,1.80
2022-09-22T11:53:53.718Z,1.60
2022-09-22T11:56:33.104Z,1.80
2022-09-22T11:59:03.687Z,1.77
2022-09-22T12:01:35.472Z,1.80
2022-09-22T12:04:11.544Z,1.80
2022-09-22T12:06:42.636Z,1.27
2022-09-22T12:09:19.176Z,1.77
2022-09-22T12:11:45.770Z,1.70
2022-09-22T12:14:15.586Z,1.43
2022-09-22T12:16:59.091Z,1.43
2022-09-22T12:19:45.676Z,1.70
2022-09-22T12:22:24.158Z,1.47
2022-09-22T12:24:50.652Z,1.83
2022-09-22T12:27:25.261Z,1.60
2022-09-22T12:29:59.789Z,1.70
2022-09-22T12:32:34.559Z,1.60
2022-09-22T12:35:01.495Z,1.30
2022-09-22T12:37:33.224Z,1.67
2022-09-22T12:40:30.668Z,1.80
2022-09-22T12:42:59.273Z,1.50
2022-09-22T12:45:38.165Z,1.43
2022-09-22T12:48:17.351Z,1.60
2022-09-22T12:50:45.224Z,1.70
2022-09-22T12:53:20.815Z,1.90
2022-09-22T12:55:48.655Z,1.80
2022-09-22T12:58:21.361Z,1.60
2022-09-22T13:00:49.633Z,1.90
2022-09-22T13:03:25.470Z,1.70
2022-09-22T13:06:04.257Z,1.60
2022-09-22T13:08:31.141Z,1.70
2022-09-22T13:10:58.538Z,1.60
2022-09-22T13:13:42.711Z,1.80
2022-09-22T13:16:15.289Z,2.00
2022-09-22T13:18:44.926Z,1.53
2022-09-22T13:21:14.359Z,1.80
2022-09-22T13:24:02.634Z,1.50
2022-09-22T13:26:41.888Z,1.53
2022-09-22T13:29:12.780Z,2.07
2022-09-22T13:32:02.585Z,1.60
2022-09-22T13:34:35.347Z,1.80
2022-09-22T13:37:07.215Z,1.40
2022-09-22T13:39:46.883Z,1.70
2022-09-22T13:42:22.253Z,1.60
2022-09-22T13:44:57.072Z,1.90
2022-09-22T13:47:25.271Z,1.40
2022-09-22T13:49:55.002Z,1.60
2022-09-22T13:52:24.803Z,1.70
2022-09-22T13:54:56.597Z,1.50
2022-09-22T13:57:29.232Z,1.93
2022-09-22T13:59:57.941Z,1.50
2022-09-22T14:02:29.489Z,1.60
2022-09-22T14:05:04.764Z,2.00
2022-09-22T14:07:34.230Z,1.40
2022-09-22T14:10:07.372Z,1.67
2022-09-22T14:12:39.478Z,1.87
2022-09-22T14:15:36.966Z,1.60
2022-09-22T14:18:26.445Z,1.73
2022-09-22T14:20:55.522Z,1.50
2022-09-22T14:23:28.982Z,1.50
2022-09-22T14:25:57.078Z,1.60
2022-09-22T14:28:26.478Z,1.80
2022-09-22T14:30:53.077Z,1.80
2022-09-22T14:33:23.016Z,1.73
2022-09-22T14:35:52.186Z,1.50
2022-09-22T14:38:22.265Z,1.40
2022-09-22T14:40:54.421Z,1.47
2022-09-22T14:43:42.324Z,1.47
2022-09-22T14:46:34.773Z,1.30
2022-09-22T14:49:37.467Z,1.53
2022-09-22T14:52:07.377Z,1.43
2022-09-22T14:54:35.709Z,1.80
2022-09-22T14:57:06.822Z,1.77
2022-09-22T14:59:54.895Z,1.73
2022-09-22T15:02:36.170Z,1.80
2022-09-22T15:05:03.682Z,1.90
2022-09-22T15:07:33.090Z,1.80
2022-09-22T15:10:02.552Z,1.53
2022-09-22T15:12:49.844Z,1.30
2022-09-22T15:15:17.635Z,1.50
2022-09-22T15:18:20.521Z,1.43
2022-09-22T15:20:51.732Z,1.40
2022-09-22T15:23:47.018Z,1.63
2022-09-22T15:26:25.445Z,1.70
2022-09-22T15:28:53.817Z,1.60
2022-09-22T15:31:26.872Z,1.30
2022-09-22T15:34:00.076Z,1.60
2022-09-22T15:36:30.586Z,1.60
2022-09-22T15:39:00.013Z,1.47
2022-09-22T15:41:28.000Z,1.80
2022-09-22T15:43:54.694Z,1.60
2022-09-22T15:46:31.541Z,1.63
2022-09-22T15:49:20.936Z,1.47
2022-09-22T15:51:49.458Z,1.40
2022-09-22T15:54:20.429Z,1.60
2022-09-22T15:56:48.586Z,1.57
2022-09-22T15:59:21.742Z,1.70
2022-09-22T16:01:48.959Z,1.50
2022-09-22T16:04:15.441Z,1.70
2022-09-22T16:06:44.129Z,1.53
2022-09-22T16:09:16.453Z,1.70
2022-09-22T16:11:43.028Z,1.90
2022-09-22T16:14:10.533Z,1.87
2022-09-22T16:16:38.023Z,1.50
2022-09-22T16:19:09.315Z,1.80
2022-09-22T16:21:38.304Z,1.70
2022-09-22T16:24:09.355Z,2.03
2022-09-22T16:26:37.708Z,2.10
2022-09-22T16:29:04.701Z,2.27
2022-09-22T16:31:31.642Z,2.00
2022-09-22T16:34:00.843Z,2.20
2022-09-22T16:36:29.879Z,2.10
2022-09-22T16:38:56.321Z,2.10
2022-09-22T16:41:22.806Z,2.03
2022-09-22T16:43:49.455Z,2.30
2022-09-22T16:46:28.720Z,2.40
2022-09-22T16:49:06.259Z,2.37
2022-09-22T16:51:41.303Z,2.40
2022-09-22T16:54:13.204Z,2.30
2022-09-22T16:56:46.138Z,2.40
2022-09-22T16:59:15.917Z,2.73
2022-09-22T17:01:43.669Z,2.27
2022-09-22T17:04:12.244Z,2.97
2022-09-22T17:06:40.727Z,2.53
2022-09-22T17:09:08.273Z,2.90
2022-09-22T17:11:37.065Z,2.93
2022-09-22T17:14:11.965Z,2.93
2022-09-22T17:16:42.032Z,3.80
2022-09-22T17:19:19.925Z,3.20
2022-09-22T17:21:52.798Z,3.00
2022-09-22T17:24:19.619Z,3.20
2022-09-22T17:26:52.111Z,3.17
2022-09-22T17:29:24.916Z,3.23
2022-09-22T17:31:57.349Z,3.07
2022-09-22T17:34:26.632Z,3.13
2022-09-22T17:36:55.434Z,2.70
2022-09-22T17:39:28.232Z,2.33
2022-09-22T17:41:55.185Z,2.80
2022-09-22T17:44:28.708Z,2.60
2022-09-22T17:47:14.444Z,2.70
2022-09-22T17:49:59.476Z,2.70
2022-09-22T17:52:29.295Z,3.30
2022-09-22T17:55:11.379Z,3.70
2022-09-22T17:57:42.803Z,3.43
2022-09-22T18:00:30.604Z,3.43
2022-09-22T18:02:58.395Z,3.83
2022-09-22T18:05:26.681Z,3.67
2022-09-22T18:07:58.134Z,3.03
2022-09-22T18:10:32.430Z,2.90
2022-09-22T18:12:59.753Z,2.63
2022-09-22T18:15:26.735Z,2.97
2022-09-22T18:17:55.626Z,2.70
2022-09-22T18:20:23.114Z,2.70
2022-09-22T18:22:50.277Z,2.40
2022-09-22T18:25:19.649Z,2.40
2022-09-22T18:27:48.493Z,2.50
2022-09-22T18:30:20.204Z,2.70
2022-09-22T18:32:50.264Z,2.60
2022-09-22T18:35:16.761Z,2.63
2022-09-22T18:37:43.255Z,2.60
2022-09-22T18:40:12.426Z,2.80
2022-09-22T18:42:39.948Z,2.53
2022-09-22T18:45:07.153Z,2.50
2022-09-22T18:47:39.735Z,2.73
2022-09-22T18:50:06.803Z,2.80
2022-09-22T18:52:33.846Z,2.70
2022-09-22T18:55:00.448Z,2.67
2022-09-22T18:57:28.621Z,3.20
2022-09-22T18:59:58.067Z,2.77
2022-09-22T19:02:24.939Z,3.00
2022-09-22T19:04:52.027Z,3.30
2022-09-22T19:07:41.583Z,4.30
2022-09-22T19:10:10.878Z,4.20
2022-09-22T19:12:39.805Z,4.00
2022-09-22T19:15:13.540Z,4.20
2022-09-22T19:17:44.409Z,4.00
2022-09-22T19:20:17.362Z,3.90
2022-09-22T19:22:44.553Z,3.20
2022-09-22T19:25:11.258Z,3.83
2022-09-22T19:27:40.154Z,3.57
2022-09-22T19:30:08.544Z,3.50
2022-09-22T19:32:35.223Z,2.80
2022-09-22T19:35:01.716Z,3.00
2022-09-22T19:37:29.487Z,3.13
2022-09-22T19:39:56.962Z,3.40
2022-09-22T19:42:23.740Z,3.90
2022-09-22T19:44:50.270Z,3.90
2022-09-22T19:47:17.398Z,4.37
2022-09-22T19:49:44.008Z,4.47
2022-09-22T19:52:11.062Z,4.53
2022-09-22T19:54:37.524Z,4.47
2022-09-22T19:57:04.217Z,4.70
2022-09-22T19:59:31.067Z,4.57
2022-09-22T20:01:57.913Z,4.37
2022-09-22T20:04:24.624Z,6.50
2022-09-22T20:06:51.098Z,5.23
2022-09-22T20:09:18.019Z,4.90
2022-09-22T20:11:46.678Z,5.57
2022-09-22T20:14:20.399Z,5.60
2022-09-22T20:16:50.238Z,6.17
2022-09-22T20:19:17.619Z,6.80
2022-09-22T20:21:45.474Z,7.30
2022-09-22T20:24:14.246Z,7.50
2022-09-22T20:26:42.602Z,7.70
2022-09-22T20:29:09.633Z,7.93
2022-09-22T20:31:36.492Z,6.90
2022-09-22T20:34:05.799Z,6.40
2022-09-22T20:36:36.926Z,5.37
2022-09-22T20:39:04.573Z,4.57
2022-09-22T20:41:31.085Z,4.80
2022-09-22T20:43:58.406Z,4.10
2022-09-22T20:46:25.536Z,3.97
2022-09-22T20:48:55.354Z,3.97
2022-09-22T20:51:23.796Z,3.93
2022-09-22T20:53:50.395Z,3.70
2022-09-22T20:56:18.029Z,3.70
2022-09-22T20:58:46.358Z,3.60
2022-09-22T21:01:15.316Z,3.10
2022-09-22T21:03:42.146Z,2.77
2022-09-22T21:06:10.527Z,2.90
2022-09-22T21:08:58.042Z,2.83
2022-09-22T21:11:25.122Z,2.87
2022-09-22T21:13:53.990Z,2.77
2022-09-22T21:16:20.491Z,2.60
2022-09-22T21:18:51.729Z,2.77
2022-09-22T21:21:19.789Z,2.80
2022-09-22T21:23:48.525Z,2.60
2022-09-22T21:26:16.354Z,2.63
2022-09-22T21:28:43.432Z,2.80
2022-09-22T21:31:10.804Z,2.10
2022-09-22T21:33:42.108Z,2.80
2022-09-22T21:36:14.176Z,2.53
2022-09-22T21:38:54.685Z,2.60
2022-09-22T21:41:26.238Z,2.63
2022-09-22T21:43:56.059Z,2.57
2022-09-22T21:46:24.418Z,2.83
2022-09-22T21:48:50.870Z,2.73
2022-09-22T21:51:20.210Z,2.83
2022-09-22T21:53:50.906Z,2.60
2022-09-22T21:56:18.549Z,2.77
2022-09-22T21:58:46.635Z,2.57
2022-09-22T22:01:21.631Z,2.90
2022-09-22T22:03:49.381Z,2.70
2022-09-22T22:06:20.725Z,2.47
2022-09-22T22:08:51.256Z,2.90
2022-09-22T22:11:25.042Z,2.33
2022-09-22T22:13:56.143Z,2.83
2022-09-22T22:16:25.153Z,2.50
2022-09-22T22:18:51.730Z,2.53
2022-09-22T22:21:20.158Z,2.63
2022-09-22T22:23:48.899Z,2.60
2022-09-22T22:26:17.693Z,2.43
2022-09-22T22:28:44.500Z,2.70
2022-09-22T22:31:13.035Z,2.60
2022-09-22T22:33:40.865Z,2.70
2022-09-22T22:36:08.802Z,2.67
2022-09-22T22:38:36.297Z,2.70
2022-09-22T22:41:04.652Z,2.60
2022-09-22T22:43:31.446Z,2.50
2022-09-22T22:45:58.609Z,2.20
2022-09-22T22:48:26.304Z,2.53
2022-09-22T22:50:54.065Z,2.13
2022-09-22T22:53:21.818Z,2.00
2022-09-22T22:56:02.336Z,2.43
2022-09-22T22:58:32.039Z,2.20
2022-09-22T23:01:11.236Z,2.60
2022-09-22T23:03:43.189Z,2.30
2022-09-22T23:06:15.519Z,2.10
2022-09-22T23:08:42.916Z,2.17
2022-09-22T23:11:23.221Z,2.30
2022-09-22T23:13:53.034Z,2.13
2022-09-22T23:16:21.547Z,2.47
2022-09-22T23:18:48.491Z,2.23
2022-09-22T23:21:16.641Z,2.27
2022-09-22T23:23:43.942Z,2.30
2022-09-22T23:26:12.120Z,2.13
2022-09-22T23:28:38.588Z,2.10
2022-09-22T23:31:12.442Z,2.30
2022-09-22T23:33:42.050Z,2.40
2022-09-22T23:36:12.617Z,2.10
2022-09-22T23:38:39.303Z,2.47
2022-09-22T23:41:06.000Z,2.20
2022-09-22T23:43:33.041Z,2.33
2022-09-22T23:46:00.122Z,2.00
2022-09-22T23:48:30.929Z,1.80
2022-09-22T23:50:58.367Z,1.90
2022-09-22T23:53:29.305Z,1.90
2022-09-22T23:55:55.808Z,2.37
2022-09-22T23:58:22.276Z,2.33
